Terminal Aerodrome Forecast
Issued by NWS

Home | Current Version | Previous Version | Text Only | Print | Product List | Glossary On
Versions: 1 2 3 4 5 6 7 8 9 10 11 12 13 14 15 16 17 18 19 20
000
FTUS46 KSEW 190500
TAFHQM
TAF
KHQM 190520Z 1906/2006 19005KT P6SM BKN010 OVC020
     FM191000 19005KT 4SM BR OVC008
     FM191900 18005KT P6SM OVC015
     FM192200 21008KT P6SM SCT025 BKN050
     FM200100 28005KT P6SM SCT060 SCT120=

USA.gov is the U.S. government's official web portal to all federal, state and local government web resources and services.